Strona główna
METAR-TAF:

METAR-TAF

Lotnisko :

Port lotniczy Auckland

Auckland, Nowa Zelandia

Szerokość geograficzna: 37-01S, Długość geograficzna: 174-48E, wysokość: 7 m

Aktualna obserwacja pogody

Raport powstał 35 minut temu, godzina 19:00 UTC
Wiatr 3 kt od wschodnio-południowy wschód
Temperatura 16°C
Wilgotność 82%
Ciśnienie 1027 hPa
Widzialność 10 km lub więcej

METAR: NZAA 141900Z AUTO 12003KT 9999 NCD 16/13 Q1027 NOSIG

czas: 08:35 (19:35 UTC)

Prognoza

Raport powstał 2 godziny i 29 minut temu, godzina 17:06 UTC
Prognoza ważna od 14 godzina 18 UTC do 15 godzina 18 UTC
Wiatr 5 kt od wschodnio-południowy wschód
Widzialność 10 km lub więcej
Rozproszone chmury na wysokości 4000 ft
Stopniowe zmiany
od 14 godzina 22 UTC do 15 godzina 00 UTC
Wiatr 15 kt od północny wschód
Stopniowe zmiany
od 15 godzina 08 UTC do 15 godzina 10 UTC
Wiatr 5 kt od północny wschód

TAF: NZAA 141706Z 1418/1518 12005KT 9999 SCT040 BECMG 1422/1500 04015KT BECMG 1508/1510 04005KT

Obserwacja i prognoza pogody dla ponad 4000 lotnisk (raport METAR i TAF).

Dostępne stacje oznaczono żółtymi i czerwonymi punktami na mapie.

Najedź kursorem aby zobaczyć nazwę stacji.

Kliknij aby zobaczyć obserwacje i prognozy pogody.

Aby zmienić mapę: kliknij na zielony przycisk z czarnym krzyżykiem, aby powiększyć; na zielony przycisk z myślnikiem, aby pomniejszyć; na zielone strzałki, aby przejść do map sąsiednich.


METAR-TAF: